Terminal Aerodrome Forecast
Issued by NWS

Home | Current Version | Previous Version | Text Only | Print | Product List | Glossary On
Versions: 1 2 3 4 5 6 7 8 9 10 11 12 13 14 15 16 17 18 19 20 21 22 23 24 25 26 27 28 29 30 31 32 33 34 35 36 37 38 39
441
FTUS45 KBOU 241008 AAB
TAFAPA
TAF AMD
KAPA 241008Z 2410/2506 18010KT P6SM SCT140 BKN220
     FM241500 15008KT P6SM FEW090 SCT140
     FM241800 12012KT P6SM VCSH SCT090 BKN140
     FM242100 10008KT P6SM SCT090 BKN130 PROB30 2421/2503 VRB20G35KT
      TSRA BKN080CB
     FM250300 15012KT P6SM FEW090 BKN140=

USA.gov is the U.S. government's official web portal to all federal, state and local government web resources and services.